createdAt,value
2018-11-06T00:00:22.385Z,991.44
2018-11-06T00:01:22.362Z,991.45
2018-11-06T00:02:22.370Z,991.41
2018-11-06T00:03:22.365Z,991.38
2018-11-06T00:04:22.343Z,991.48
2018-11-06T00:05:22.384Z,991.52
2018-11-06T00:06:22.319Z,991.45
2018-11-06T00:07:22.364Z,991.44
2018-11-06T00:08:22.298Z,991.47
2018-11-06T00:09:25.412Z,991.47
2018-11-06T00:10:22.325Z,991.47
2018-11-06T00:11:22.277Z,991.47
2018-11-06T00:12:22.481Z,991.46
2018-11-06T00:13:22.311Z,991.51
2018-11-06T00:14:22.370Z,991.52
2018-11-06T00:15:22.774Z,991.49
2018-11-06T00:16:22.214Z,991.49
2018-11-06T00:17:22.193Z,991.49
2018-11-06T00:18:22.180Z,991.46
2018-11-06T00:19:22.176Z,991.45
2018-11-06T00:20:22.184Z,991.40
2018-11-06T00:21:22.179Z,991.45
2018-11-06T00:22:22.881Z,991.46
2018-11-06T00:23:22.126Z,991.41
2018-11-06T00:24:22.120Z,991.41
2018-11-06T00:25:22.187Z,991.44
2018-11-06T00:26:22.142Z,991.42
2018-11-06T00:27:22.136Z,991.43
2018-11-06T00:28:22.105Z,991.42
2018-11-06T00:29:22.123Z,991.41
2018-11-06T00:30:22.051Z,991.43
2018-11-06T00:31:22.348Z,991.45
2018-11-06T00:32:22.060Z,991.48
2018-11-06T00:33:22.030Z,991.49
2018-11-06T00:34:22.086Z,991.47
2018-11-06T00:35:21.995Z,991.49
2018-11-06T00:36:22.000Z,991.47
2018-11-06T00:37:22.213Z,991.45
2018-11-06T00:38:22.461Z,991.48
2018-11-06T00:39:22.027Z,991.45
2018-11-06T00:40:22.091Z,991.47
2018-11-06T00:41:21.959Z,991.48
2018-11-06T00:42:22.097Z,991.47
2018-11-06T00:43:22.014Z,991.44
2018-11-06T00:44:21.902Z,991.46
2018-11-06T00:45:21.909Z,991.45
2018-11-06T00:46:21.873Z,991.47
2018-11-06T00:47:21.879Z,991.49
2018-11-06T00:48:21.848Z,991.48
2018-11-06T00:49:21.915Z,991.43
2018-11-06T00:50:23.237Z,991.42
2018-11-06T00:51:21.894Z,991.48
2018-11-06T00:52:21.814Z,991.45
2018-11-06T00:53:21.799Z,991.42
2018-11-06T00:54:21.842Z,991.45
2018-11-06T00:55:21.824Z,991.46
2018-11-06T00:56:21.904Z,991.48
2018-11-06T00:57:21.893Z,991.50
2018-11-06T00:58:21.741Z,991.47
2018-11-06T00:59:21.776Z,991.47
2018-11-06T01:00:21.715Z,991.48
2018-11-06T01:01:22.166Z,991.48
2018-11-06T01:02:21.715Z,991.44
2018-11-06T01:03:21.716Z,991.42
2018-11-06T01:04:21.918Z,991.46
2018-11-06T01:05:21.675Z,991.47
2018-11-06T01:06:21.660Z,991.43
2018-11-06T01:07:21.666Z,991.43
2018-11-06T01:08:21.943Z,991.40
2018-11-06T01:09:21.622Z,991.44
2018-11-06T01:10:22.069Z,991.43
2018-11-06T01:11:21.600Z,991.38
2018-11-06T01:12:21.947Z,991.42
2018-11-06T01:13:21.579Z,991.38
2018-11-06T01:14:21.616Z,991.38
2018-11-06T01:15:21.636Z,991.39
2018-11-06T01:16:21.562Z,991.43
2018-11-06T01:17:21.676Z,991.47
2018-11-06T01:18:21.533Z,991.46
2018-11-06T01:19:21.528Z,991.48
2018-11-06T01:20:21.498Z,991.50
2018-11-06T01:21:21.492Z,991.45
2018-11-06T01:22:21.508Z,991.48
2018-11-06T01:23:21.465Z,991.47
2018-11-06T01:24:21.467Z,991.49
2018-11-06T01:25:21.458Z,991.45
2018-11-06T01:26:21.507Z,991.50
2018-11-06T01:27:21.451Z,991.48
2018-11-06T01:28:21.422Z,991.49
2018-11-06T01:29:21.401Z,991.52
2018-11-06T01:30:21.389Z,991.54
2018-11-06T01:31:21.385Z,991.50
2018-11-06T01:32:21.836Z,991.51
2018-11-06T01:33:21.455Z,991.52
2018-11-06T01:34:21.470Z,991.58
2018-11-06T01:35:21.393Z,991.61
2018-11-06T01:36:21.424Z,991.58
2018-11-06T01:37:22.223Z,991.62
2018-11-06T01:38:21.307Z,991.62
2018-11-06T01:39:21.490Z,991.67
2018-11-06T01:40:21.356Z,991.65
2018-11-06T01:41:21.405Z,991.64
2018-11-06T01:42:21.361Z,991.64
2018-11-06T01:43:21.249Z,991.64
2018-11-06T01:44:21.409Z,991.63
2018-11-06T01:45:21.322Z,991.61
2018-11-06T01:46:21.294Z,991.60
2018-11-06T01:47:21.248Z,991.54
2018-11-06T01:48:21.268Z,991.59
2018-11-06T01:49:21.272Z,991.60
2018-11-06T01:50:21.310Z,991.59
2018-11-06T01:51:21.169Z,991.59
2018-11-06T01:52:21.189Z,991.62
2018-11-06T01:53:21.145Z,991.63
2018-11-06T01:54:21.132Z,991.63
2018-11-06T01:55:21.136Z,991.68
2018-11-06T01:56:21.106Z,991.62
2018-11-06T01:57:21.125Z,991.62
2018-11-06T01:58:21.088Z,991.63
2018-11-06T01:59:21.078Z,991.68
2018-11-06T02:00:21.067Z,991.62
2018-11-06T02:01:21.091Z,991.63
2018-11-06T02:02:21.143Z,991.60
2018-11-06T02:03:21.032Z,991.57
2018-11-06T02:04:21.068Z,991.61
2018-11-06T02:05:21.013Z,991.58
2018-11-06T02:06:21.003Z,991.58
2018-11-06T02:07:20.989Z,991.60
2018-11-06T02:08:20.988Z,991.62
2018-11-06T02:09:20.999Z,991.66
2018-11-06T02:10:20.958Z,991.67
2018-11-06T02:11:21.226Z,991.68
2018-11-06T02:12:20.942Z,991.65
2018-11-06T02:13:20.930Z,991.66
2018-11-06T02:14:20.911Z,991.66
2018-11-06T02:15:20.925Z,991.56
2018-11-06T02:16:21.176Z,991.56
2018-11-06T02:17:20.910Z,991.52
2018-11-06T02:18:20.946Z,991.55
2018-11-06T02:19:20.882Z,991.54
2018-11-06T02:20:21.419Z,991.58
2018-11-06T02:21:20.864Z,991.54
2018-11-06T02:22:21.038Z,991.57
2018-11-06T02:23:20.811Z,991.53
2018-11-06T02:24:20.798Z,991.63
2018-11-06T02:25:20.794Z,991.63
2018-11-06T02:26:20.847Z,991.59
2018-11-06T02:27:21.197Z,991.57
2018-11-06T02:28:20.766Z,991.56
2018-11-06T02:29:20.776Z,991.56
2018-11-06T02:30:20.734Z,991.56
2018-11-06T02:31:20.725Z,991.55
2018-11-06T02:32:20.807Z,991.55
2018-11-06T02:33:20.706Z,991.56
2018-11-06T02:34:20.969Z,991.51
2018-11-06T02:35:21.206Z,991.52
2018-11-06T02:36:20.677Z,991.50
2018-11-06T02:37:20.681Z,991.47
2018-11-06T02:38:20.645Z,991.47
2018-11-06T02:39:20.638Z,991.44
2018-11-06T02:40:20.644Z,991.49
2018-11-06T02:41:20.622Z,991.42
2018-11-06T02:42:20.855Z,991.44
2018-11-06T02:43:20.607Z,991.47
2018-11-06T02:44:20.608Z,991.45
2018-11-06T02:45:20.612Z,991.48
2018-11-06T02:46:20.578Z,991.47
2018-11-06T02:47:20.553Z,991.53
2018-11-06T02:48:20.557Z,991.55
2018-11-06T02:49:20.558Z,991.57
2018-11-06T02:50:20.590Z,991.59
2018-11-06T02:51:20.531Z,991.55
2018-11-06T02:52:20.537Z,991.55
2018-11-06T02:53:20.487Z,991.48
2018-11-06T02:54:20.476Z,991.48
2018-11-06T02:55:20.466Z,991.47
2018-11-06T02:56:20.479Z,991.48
2018-11-06T02:57:20.440Z,991.46
2018-11-06T02:58:20.426Z,991.47
2018-11-06T02:59:20.425Z,991.49
2018-11-06T03:00:20.426Z,991.50
2018-11-06T03:01:20.396Z,991.45
2018-11-06T03:02:20.409Z,991.50
2018-11-06T03:03:20.371Z,991.51
2018-11-06T03:04:20.370Z,991.59
2018-11-06T03:05:20.372Z,991.51
2018-11-06T03:06:20.348Z,991.54
2018-11-06T03:07:20.367Z,991.54
2018-11-06T03:08:20.321Z,991.56
2018-11-06T03:09:20.326Z,991.52
2018-11-06T03:10:20.319Z,991.52
2018-11-06T03:11:20.311Z,991.57
2018-11-06T03:12:20.306Z,991.56
2018-11-06T03:13:20.306Z,991.46
2018-11-06T03:14:20.264Z,991.46
2018-11-06T03:15:20.239Z,991.46
2018-11-06T03:16:20.232Z,991.40
2018-11-06T03:17:20.222Z,991.42
2018-11-06T03:18:20.239Z,991.38
2018-11-06T03:19:20.207Z,991.44
2018-11-06T03:20:20.198Z,991.43
2018-11-06T03:21:20.196Z,991.42
2018-11-06T03:22:20.169Z,991.41
2018-11-06T03:23:20.175Z,991.47
2018-11-06T03:24:20.144Z,991.49
2018-11-06T03:25:20.144Z,991.47
2018-11-06T03:26:20.128Z,991.44
2018-11-06T03:27:20.141Z,991.48
2018-11-06T03:28:20.142Z,991.52
2018-11-06T03:29:20.107Z,991.47
2018-11-06T03:30:20.100Z,991.40
2018-11-06T03:31:20.072Z,991.43
2018-11-06T03:32:20.060Z,991.42
2018-11-06T03:33:20.063Z,991.42
2018-11-06T03:34:20.032Z,991.44
2018-11-06T03:35:20.023Z,991.47
2018-11-06T03:36:20.012Z,991.46
2018-11-06T03:37:20.036Z,991.45
2018-11-06T03:38:20.012Z,991.45
2018-11-06T03:39:20.009Z,991.48
2018-11-06T03:40:19.988Z,991.48
2018-11-06T03:41:19.999Z,991.48
2018-11-06T03:42:19.971Z,991.48
2018-11-06T03:43:19.934Z,991.45
2018-11-06T03:44:19.949Z,991.41
2018-11-06T03:45:19.922Z,991.43
2018-11-06T03:46:19.907Z,991.45
2018-11-06T03:47:19.918Z,991.46
2018-11-06T03:48:19.887Z,991.44
2018-11-06T03:49:19.875Z,991.46
2018-11-06T03:50:19.892Z,991.47
2018-11-06T03:51:19.893Z,991.46
2018-11-06T03:52:19.876Z,991.48
2018-11-06T03:53:19.847Z,991.43
2018-11-06T03:54:19.851Z,991.50
2018-11-06T03:55:19.806Z,991.51
2018-11-06T03:56:19.798Z,991.52
2018-11-06T03:57:19.829Z,991.55
2018-11-06T03:58:19.823Z,991.58
2018-11-06T03:59:19.810Z,991.58
2018-11-06T04:00:19.826Z,991.59
2018-11-06T04:01:19.740Z,991.54
2018-11-06T04:02:19.775Z,991.58
2018-11-06T04:03:19.811Z,991.53
2018-11-06T04:04:19.721Z,991.59
2018-11-06T04:05:19.727Z,991.58
2018-11-06T04:06:19.686Z,991.53
2018-11-06T04:07:19.701Z,991.50
2018-11-06T04:08:19.706Z,991.49
2018-11-06T04:09:19.657Z,991.50
2018-11-06T04:10:19.647Z,991.47
2018-11-06T04:11:19.635Z,991.46
2018-11-06T04:12:19.641Z,991.47
2018-11-06T04:13:19.609Z,991.49
2018-11-06T04:14:19.599Z,991.51
2018-11-06T04:15:19.588Z,991.51
2018-11-06T04:16:19.600Z,991.48
2018-11-06T04:17:19.572Z,991.47
2018-11-06T04:18:19.573Z,991.52
2018-11-06T04:19:19.551Z,991.53
2018-11-06T04:20:19.562Z,991.56
2018-11-06T04:21:19.527Z,991.56
2018-11-06T04:22:19.537Z,991.54
2018-11-06T04:23:19.503Z,991.53
2018-11-06T04:24:19.494Z,991.55
2018-11-06T04:25:19.483Z,991.53
2018-11-06T04:26:19.502Z,991.50
2018-11-06T04:27:19.468Z,991.52
2018-11-06T04:28:19.494Z,991.54
2018-11-06T04:29:19.473Z,991.52
2018-11-06T04:30:19.427Z,991.52
2018-11-06T04:31:19.418Z,991.49
2018-11-06T04:32:19.424Z,991.48
2018-11-06T04:33:19.390Z,991.45
2018-11-06T04:34:19.391Z,991.45
2018-11-06T04:35:19.374Z,991.48
2018-11-06T04:36:19.373Z,991.46
2018-11-06T04:37:19.390Z,991.44
2018-11-06T04:38:19.340Z,991.45
2018-11-06T04:39:19.328Z,991.45
2018-11-06T04:40:19.313Z,991.40
2018-11-06T04:41:19.310Z,991.41
2018-11-06T04:42:19.316Z,991.39
2018-11-06T04:43:19.290Z,991.43
2018-11-06T04:44:19.304Z,991.41
2018-11-06T04:45:19.261Z,991.40
2018-11-06T04:46:19.250Z,991.40
2018-11-06T04:47:19.263Z,991.40
2018-11-06T04:48:19.226Z,991.38
2018-11-06T04:49:19.752Z,991.37
2018-11-06T04:50:19.227Z,991.39
2018-11-06T04:51:19.196Z,991.40
2018-11-06T04:52:19.200Z,991.43
2018-11-06T04:53:19.188Z,991.46
2018-11-06T04:54:19.167Z,991.53
2018-11-06T04:55:19.164Z,991.59
2018-11-06T04:56:19.150Z,991.60
2018-11-06T04:57:19.144Z,991.60
2018-11-06T04:58:19.152Z,991.63
2018-11-06T04:59:19.108Z,991.62
2018-11-06T05:00:19.094Z,991.61
2018-11-06T05:01:19.091Z,991.59
2018-11-06T05:02:19.078Z,991.63
2018-11-06T05:03:19.085Z,991.59
2018-11-06T05:04:19.058Z,991.63
2018-11-06T05:05:19.084Z,991.62
2018-11-06T05:06:19.035Z,991.66
2018-11-06T05:07:19.024Z,991.68
2018-11-06T05:08:19.016Z,991.71
2018-11-06T05:09:19.026Z,991.71
2018-11-06T05:10:18.990Z,991.71
2018-11-06T05:11:19.218Z,991.74
2018-11-06T05:12:18.982Z,991.73
2018-11-06T05:13:18.977Z,991.79
2018-11-06T05:14:19.077Z,991.72
2018-11-06T05:15:18.945Z,991.71
2018-11-06T05:16:18.928Z,991.66
2018-11-06T05:17:18.910Z,991.64
2018-11-06T05:18:18.923Z,991.64
2018-11-06T05:19:18.889Z,991.63
2018-11-06T05:20:18.898Z,991.62
2018-11-06T05:21:18.873Z,991.61
2018-11-06T05:22:18.899Z,991.61
2018-11-06T05:23:18.865Z,991.58
2018-11-06T05:24:18.833Z,991.54
2018-11-06T05:25:18.873Z,991.55
2018-11-06T05:26:18.817Z,991.57
2018-11-06T05:27:18.861Z,991.55
2018-11-06T05:28:18.814Z,991.54
2018-11-06T05:29:18.779Z,991.53
2018-11-06T05:30:18.773Z,991.52
2018-11-06T05:31:18.776Z,991.50
2018-11-06T05:32:18.766Z,991.51
2018-11-06T05:33:18.742Z,991.51
2018-11-06T05:34:18.737Z,991.52
2018-11-06T05:35:18.751Z,991.51
2018-11-06T05:36:18.734Z,991.49
2018-11-06T05:37:18.691Z,991.50
2018-11-06T05:38:18.682Z,991.51
2018-11-06T05:39:18.689Z,991.47
2018-11-06T05:40:18.703Z,991.55
2018-11-06T05:41:18.647Z,991.53
2018-11-06T05:42:18.655Z,991.52
2018-11-06T05:43:18.627Z,991.53
2018-11-06T05:44:18.626Z,991.57
2018-11-06T05:45:18.628Z,991.55
2018-11-06T05:46:18.604Z,991.58
2018-11-06T05:47:18.603Z,991.61
2018-11-06T05:48:18.584Z,991.61
2018-11-06T05:49:18.560Z,991.60
2018-11-06T05:50:18.555Z,991.56
2018-11-06T05:51:18.540Z,991.59
2018-11-06T05:52:18.551Z,991.57
2018-11-06T05:53:18.590Z,991.56
2018-11-06T05:54:18.510Z,991.61
2018-11-06T05:55:18.498Z,991.64
2018-11-06T05:56:18.483Z,991.62
2018-11-06T05:57:18.485Z,991.68
2018-11-06T05:58:18.493Z,991.72
2018-11-06T05:59:18.468Z,991.70
2018-11-06T06:00:18.488Z,991.72
2018-11-06T06:01:18.447Z,991.71
2018-11-06T06:02:18.420Z,991.74
2018-11-06T06:03:18.426Z,991.76
2018-11-06T06:04:18.411Z,991.75
2018-11-06T06:05:18.404Z,991.73
2018-11-06T06:06:18.378Z,991.75
2018-11-06T06:07:18.384Z,991.70
2018-11-06T06:08:18.391Z,991.75
2018-11-06T06:09:18.348Z,991.77
2018-11-06T06:10:18.335Z,991.74
2018-11-06T06:11:18.478Z,991.75
2018-11-06T06:12:18.335Z,991.76
2018-11-06T06:13:18.340Z,991.79
2018-11-06T06:14:18.290Z,991.87
2018-11-06T06:15:18.282Z,991.88
2018-11-06T06:16:18.387Z,991.89
2018-11-06T06:17:18.368Z,991.92
2018-11-06T06:18:18.710Z,991.89
2018-11-06T06:19:18.240Z,991.88
2018-11-06T06:20:18.244Z,991.83
2018-11-06T06:21:18.210Z,991.80
2018-11-06T06:22:18.206Z,991.78
2018-11-06T06:23:18.218Z,991.79
2018-11-06T06:24:18.197Z,991.74
2018-11-06T06:25:18.205Z,991.76
2018-11-06T06:26:18.160Z,991.72
2018-11-06T06:27:18.159Z,991.73
2018-11-06T06:28:18.198Z,991.75
2018-11-06T06:29:18.159Z,991.73
2018-11-06T06:30:18.117Z,991.73
2018-11-06T06:31:18.105Z,991.75
2018-11-06T06:32:18.099Z,991.68
2018-11-06T06:33:18.114Z,991.72
2018-11-06T06:34:18.107Z,991.74
2018-11-06T06:35:18.175Z,991.80
2018-11-06T06:36:18.047Z,991.78
2018-11-06T06:37:18.049Z,991.78
2018-11-06T06:38:18.047Z,991.79
2018-11-06T06:39:18.042Z,991.77
2018-11-06T06:40:18.077Z,991.82
2018-11-06T06:41:18.011Z,991.79
2018-11-06T06:42:17.985Z,991.81
2018-11-06T06:43:17.999Z,991.80
2018-11-06T06:44:17.966Z,991.79
2018-11-06T06:45:17.948Z,991.78
2018-11-06T06:46:17.995Z,991.77
2018-11-06T06:47:17.948Z,991.77
2018-11-06T06:48:17.969Z,991.73
2018-11-06T06:49:17.935Z,991.78
2018-11-06T06:50:17.908Z,991.78
2018-11-06T06:51:17.913Z,991.80
2018-11-06T06:52:17.927Z,991.81
2018-11-06T06:53:18.201Z,991.86
2018-11-06T06:54:18.028Z,991.87
2018-11-06T06:55:18.813Z,991.92
2018-11-06T06:56:17.854Z,991.96
2018-11-06T06:57:17.832Z,991.95
2018-11-06T06:58:17.909Z,991.91
2018-11-06T06:59:17.798Z,991.86
2018-11-06T07:00:17.783Z,991.83
2018-11-06T07:01:17.795Z,991.84
2018-11-06T07:02:17.810Z,991.85
2018-11-06T07:03:17.813Z,991.81
2018-11-06T07:04:17.748Z,991.81
2018-11-06T07:05:17.743Z,991.88
2018-11-06T07:06:17.758Z,991.86
2018-11-06T07:07:17.711Z,991.90
2018-11-06T07:08:17.698Z,991.92
2018-11-06T07:09:17.732Z,991.93
2018-11-06T07:10:17.707Z,991.96
2018-11-06T07:11:17.667Z,991.96
2018-11-06T07:12:17.663Z,991.93
2018-11-06T07:13:17.672Z,991.96
2018-11-06T07:14:17.650Z,991.96
2018-11-06T07:15:17.627Z,992.00
2018-11-06T07:16:17.622Z,991.98
2018-11-06T07:17:17.597Z,992.02
2018-11-06T07:18:17.591Z,992.01
2018-11-06T07:19:17.617Z,992.03
2018-11-06T07:20:17.582Z,992.07
2018-11-06T07:21:17.561Z,992.06
2018-11-06T07:22:17.548Z,992.13
2018-11-06T07:23:17.537Z,992.15
2018-11-06T07:24:17.541Z,992.16
2018-11-06T07:25:17.558Z,992.16
2018-11-06T07:26:17.502Z,992.16
2018-11-06T07:27:17.494Z,992.14
2018-11-06T07:28:17.489Z,992.15
2018-11-06T07:29:17.509Z,992.14
2018-11-06T07:30:17.535Z,992.16
2018-11-06T07:31:17.474Z,992.14
2018-11-06T07:32:17.435Z,992.16
2018-11-06T07:33:17.455Z,992.20
2018-11-06T07:34:17.421Z,992.17
2018-11-06T07:35:17.528Z,992.16
2018-11-06T07:36:17.447Z,992.15
2018-11-06T07:37:17.385Z,992.21
2018-11-06T07:38:17.403Z,992.17
2018-11-06T07:39:17.449Z,992.24
2018-11-06T07:40:17.361Z,992.23
2018-11-06T07:41:17.483Z,992.24
2018-11-06T07:42:17.365Z,992.23
2018-11-06T07:43:17.361Z,992.25
2018-11-06T07:44:17.312Z,992.25
2018-11-06T07:45:17.297Z,992.26
2018-11-06T07:46:17.286Z,992.28
2018-11-06T07:47:17.301Z,992.29
2018-11-06T07:48:17.270Z,992.31
2018-11-06T07:49:17.250Z,992.35
2018-11-06T07:50:17.308Z,992.34
2018-11-06T07:51:17.231Z,992.37
2018-11-06T07:52:17.218Z,992.39
2018-11-06T07:53:17.233Z,992.45
2018-11-06T07:54:17.232Z,992.36
2018-11-06T07:55:17.191Z,992.39
2018-11-06T07:56:17.237Z,992.42
2018-11-06T07:57:17.178Z,992.43
2018-11-06T07:58:17.186Z,992.43
2018-11-06T07:59:17.155Z,992.45
2018-11-06T08:00:17.131Z,992.47
2018-11-06T08:01:17.129Z,992.47
2018-11-06T08:02:17.134Z,992.48
2018-11-06T08:03:17.152Z,992.43
2018-11-06T08:04:17.136Z,992.40
2018-11-06T08:05:17.095Z,992.43
2018-11-06T08:06:17.081Z,992.40
2018-11-06T08:07:17.059Z,992.44
2018-11-06T08:08:17.050Z,992.43
2018-11-06T08:09:17.053Z,992.42
2018-11-06T08:10:17.041Z,992.45
2018-11-06T08:11:17.029Z,992.47
2018-11-06T08:12:17.023Z,992.49
2018-11-06T08:13:16.999Z,992.52
2018-11-06T08:14:17.010Z,992.55
2018-11-06T08:15:17.094Z,992.56
2018-11-06T08:16:16.993Z,992.54
2018-11-06T08:17:16.982Z,992.54
2018-11-06T08:18:16.987Z,992.59
2018-11-06T08:19:16.975Z,992.60
2018-11-06T08:20:17.004Z,992.61
2018-11-06T08:21:17.021Z,992.63
2018-11-06T08:22:16.898Z,992.63
2018-11-06T08:23:16.964Z,992.65
2018-11-06T08:24:17.078Z,992.63
2018-11-06T08:25:16.991Z,992.65
2018-11-06T08:26:16.870Z,992.64
2018-11-06T08:27:16.941Z,992.67
2018-11-06T08:28:17.067Z,992.73
2018-11-06T08:29:16.877Z,992.73
2018-11-06T08:30:16.923Z,992.73
2018-11-06T08:31:17.214Z,992.76
2018-11-06T08:32:17.134Z,992.79
2018-11-06T08:33:16.806Z,992.83
2018-11-06T08:34:16.768Z,992.81
2018-11-06T08:35:16.765Z,992.73
2018-11-06T08:36:16.826Z,992.74
2018-11-06T08:37:16.735Z,992.74
2018-11-06T08:38:16.720Z,992.73
2018-11-06T08:39:16.721Z,992.78
2018-11-06T08:40:16.699Z,992.77
2018-11-06T08:41:16.681Z,992.74
2018-11-06T08:42:16.748Z,992.66
2018-11-06T08:43:16.675Z,992.71
2018-11-06T08:44:16.649Z,992.67
2018-11-06T08:45:16.644Z,992.70
2018-11-06T08:46:16.631Z,992.68
2018-11-06T08:47:16.638Z,992.67
2018-11-06T08:48:16.654Z,992.63
2018-11-06T08:49:16.619Z,992.60
2018-11-06T08:50:16.589Z,992.57
2018-11-06T08:51:16.609Z,992.59
2018-11-06T08:52:16.567Z,992.56
2018-11-06T08:53:16.560Z,992.58
2018-11-06T08:54:16.564Z,992.55
2018-11-06T08:55:16.537Z,992.53
2018-11-06T08:56:16.521Z,992.55
2018-11-06T08:57:16.531Z,992.51
2018-11-06T08:58:16.539Z,992.56
2018-11-06T08:59:16.495Z,992.48
2018-11-06T09:00:16.479Z,992.52
2018-11-06T09:01:16.467Z,992.55
2018-11-06T09:02:16.477Z,992.55
2018-11-06T09:03:16.461Z,992.52
2018-11-06T09:04:16.429Z,992.54
2018-11-06T09:05:16.455Z,992.53
2018-11-06T09:06:16.415Z,992.51
2018-11-06T09:07:16.397Z,992.51
2018-11-06T09:08:16.460Z,992.52
2018-11-06T09:09:16.431Z,992.50
2018-11-06T09:10:16.436Z,992.49
2018-11-06T09:11:16.391Z,992.50
2018-11-06T09:12:16.477Z,992.43
2018-11-06T09:13:16.422Z,992.43
2018-11-06T09:14:16.358Z,992.46
2018-11-06T09:15:16.448Z,992.45
2018-11-06T09:16:16.296Z,992.48
2018-11-06T09:17:16.456Z,992.48
2018-11-06T09:18:16.298Z,992.53
2018-11-06T09:19:16.270Z,992.49
2018-11-06T09:20:16.288Z,992.43
2018-11-06T09:21:16.239Z,992.45
2018-11-06T09:22:16.231Z,992.45
2018-11-06T09:23:16.243Z,992.48
2018-11-06T09:24:16.215Z,992.48
2018-11-06T09:25:16.200Z,992.44
2018-11-06T09:26:16.185Z,992.46
2018-11-06T09:27:16.174Z,992.46
2018-11-06T09:28:16.189Z,992.44
2018-11-06T09:29:16.161Z,992.49
2018-11-06T09:30:16.143Z,992.45
2018-11-06T09:31:16.145Z,992.41
2018-11-06T09:32:16.125Z,992.43
2018-11-06T09:33:16.106Z,992.45
2018-11-06T09:34:16.115Z,992.42
2018-11-06T09:35:16.178Z,992.47
2018-11-06T09:36:16.118Z,992.49
2018-11-06T09:38:16.058Z,992.46
2018-11-06T09:39:16.065Z,992.49
2018-11-06T09:40:16.030Z,992.45
2018-11-06T09:41:16.088Z,992.41
2018-11-06T09:42:16.014Z,992.43
2018-11-06T09:43:16.027Z,992.36
2018-11-06T09:44:15.993Z,992.38
2018-11-06T09:45:15.982Z,992.38
2018-11-06T09:46:15.967Z,992.39
2018-11-06T09:47:15.978Z,992.43
2018-11-06T09:48:15.961Z,992.36
2018-11-06T09:49:15.948Z,992.43
2018-11-06T09:50:15.925Z,992.40
2018-11-06T09:51:15.917Z,992.39
2018-11-06T09:52:15.906Z,992.37
2018-11-06T09:53:15.921Z,992.37
2018-11-06T09:54:15.879Z,992.33
2018-11-06T09:55:15.874Z,992.31
2018-11-06T09:56:15.872Z,992.30
2018-11-06T09:57:15.878Z,992.28
2018-11-06T09:58:15.844Z,992.26
2018-11-06T09:59:15.866Z,992.29
2018-11-06T10:00:15.857Z,992.27
2018-11-06T10:01:15.840Z,992.27
2018-11-06T10:02:15.803Z,992.31
2018-11-06T10:03:15.836Z,992.32
2018-11-06T10:04:15.802Z,992.27
2018-11-06T10:05:15.756Z,992.24
2018-11-06T10:06:15.844Z,992.22
2018-11-06T10:07:16.102Z,992.22
2018-11-06T10:08:15.734Z,992.19
2018-11-06T10:09:15.767Z,992.24
2018-11-06T10:10:15.728Z,992.25
2018-11-06T10:11:15.692Z,992.28
2018-11-06T10:12:15.695Z,992.20
2018-11-06T10:13:15.704Z,992.24
2018-11-06T10:14:15.715Z,992.26
2018-11-06T10:15:15.649Z,992.25
2018-11-06T10:16:15.649Z,992.30
2018-11-06T10:17:15.663Z,992.23
2018-11-06T10:18:15.660Z,992.23
2018-11-06T10:19:15.606Z,992.25
2018-11-06T10:20:15.608Z,992.20
2018-11-06T10:21:15.649Z,992.29
2018-11-06T10:22:15.574Z,992.30
2018-11-06T10:23:16.868Z,992.25
2018-11-06T10:24:15.555Z,992.26
2018-11-06T10:25:15.563Z,992.30
2018-11-06T10:26:15.531Z,992.23
2018-11-06T10:27:15.546Z,992.25
2018-11-06T10:28:15.514Z,992.21
2018-11-06T10:29:15.495Z,992.24
2018-11-06T10:30:15.508Z,992.27
2018-11-06T10:31:15.496Z,992.28
2018-11-06T10:32:15.466Z,992.30
2018-11-06T10:33:15.456Z,992.27
2018-11-06T10:34:15.443Z,992.24
2018-11-06T10:35:15.449Z,992.25
2018-11-06T10:36:15.454Z,992.27
2018-11-06T10:37:15.405Z,992.19
2018-11-06T10:38:15.467Z,992.24
2018-11-06T10:39:15.425Z,992.26
2018-11-06T10:40:15.375Z,992.29
2018-11-06T10:41:15.387Z,992.29
2018-11-06T10:42:15.357Z,992.25
2018-11-06T10:43:15.341Z,992.26
2018-11-06T10:44:15.328Z,992.23
2018-11-06T10:45:15.332Z,992.24
2018-11-06T10:46:15.336Z,992.22
2018-11-06T10:47:15.301Z,992.26
2018-11-06T10:48:15.314Z,992.17
2018-11-06T10:49:15.308Z,992.22
2018-11-06T10:50:15.267Z,992.20
2018-11-06T10:51:15.252Z,992.18
2018-11-06T10:52:15.261Z,992.17
2018-11-06T10:53:15.237Z,992.14
2018-11-06T10:54:15.242Z,992.12
2018-11-06T10:55:15.209Z,992.12
2018-11-06T10:56:15.201Z,992.08
2018-11-06T10:57:15.200Z,992.10
2018-11-06T10:58:15.213Z,992.10
2018-11-06T10:59:15.192Z,992.04
2018-11-06T11:00:15.155Z,991.98
2018-11-06T11:01:15.140Z,991.96
2018-11-06T11:02:15.129Z,991.92
2018-11-06T11:03:15.120Z,991.93
2018-11-06T11:04:15.255Z,991.93
2018-11-06T11:05:15.101Z,991.89
2018-11-06T11:06:15.105Z,991.92
2018-11-06T11:07:15.076Z,991.95
2018-11-06T11:08:15.076Z,991.93
2018-11-06T11:09:15.081Z,991.89
2018-11-06T11:10:15.041Z,991.86
2018-11-06T11:11:15.032Z,991.92
2018-11-06T11:12:15.030Z,991.90
2018-11-06T11:13:15.066Z,991.89
2018-11-06T11:14:15.001Z,991.91
2018-11-06T11:15:15.011Z,991.91
2018-11-06T11:16:15.005Z,991.94
2018-11-06T11:17:14.998Z,991.98
2018-11-06T11:18:14.983Z,991.95
2018-11-06T11:19:14.995Z,991.91
2018-11-06T11:20:15.087Z,991.90
2018-11-06T11:21:14.946Z,991.87
2018-11-06T11:22:14.916Z,991.89
2018-11-06T11:23:14.922Z,991.87
2018-11-06T11:24:14.885Z,991.87
2018-11-06T11:25:14.899Z,991.85
2018-11-06T11:26:14.873Z,991.82
2018-11-06T11:27:14.877Z,991.83
2018-11-06T11:28:14.853Z,991.83
2018-11-06T11:29:14.858Z,991.82
2018-11-06T11:30:14.836Z,991.83
2018-11-06T11:31:14.844Z,991.80
2018-11-06T11:32:14.811Z,991.84
2018-11-06T11:33:14.852Z,991.80
2018-11-06T11:34:14.836Z,991.82
2018-11-06T11:35:14.839Z,991.83
2018-11-06T11:36:14.755Z,991.75
2018-11-06T11:37:14.751Z,991.78
2018-11-06T11:38:14.742Z,991.76
2018-11-06T11:39:14.727Z,991.75
2018-11-06T11:40:14.742Z,991.79
2018-11-06T11:41:14.728Z,991.79
2018-11-06T11:42:14.690Z,991.74
2018-11-06T11:43:14.681Z,991.75
2018-11-06T11:44:14.683Z,991.74
2018-11-06T11:45:14.665Z,991.65
2018-11-06T11:46:14.651Z,991.64
2018-11-06T11:47:14.635Z,991.65
2018-11-06T11:48:14.622Z,991.63
2018-11-06T11:49:14.637Z,991.63
2018-11-06T11:50:14.633Z,991.60
2018-11-06T11:51:14.595Z,991.59
2018-11-06T11:52:14.586Z,991.63
2018-11-06T11:53:14.570Z,991.63
2018-11-06T11:54:14.561Z,991.56
2018-11-06T11:55:14.547Z,991.54
2018-11-06T11:56:14.554Z,991.52
2018-11-06T11:57:14.533Z,991.58
2018-11-06T11:58:14.544Z,991.52
2018-11-06T11:59:14.507Z,991.56
2018-11-06T12:00:14.650Z,991.56
2018-11-06T12:01:14.695Z,991.58
2018-11-06T12:02:14.508Z,991.58
2018-11-06T12:03:14.469Z,991.60
2018-11-06T12:04:14.470Z,991.62
2018-11-06T12:05:14.435Z,991.58
2018-11-06T12:06:14.428Z,991.58
2018-11-06T12:07:14.432Z,991.60
2018-11-06T12:08:14.422Z,991.59
2018-11-06T12:09:14.404Z,991.59
2018-11-06T12:10:14.388Z,991.60
2018-11-06T12:11:14.373Z,991.58
2018-11-06T12:12:14.384Z,991.58
2018-11-06T12:13:14.381Z,991.57
2018-11-06T12:14:14.354Z,991.55
2018-11-06T12:15:14.329Z,991.57
2018-11-06T12:16:14.315Z,991.53
2018-11-06T12:17:14.318Z,991.51
2018-11-06T12:18:14.384Z,991.50
2018-11-06T12:19:14.316Z,991.51
2018-11-06T12:20:14.301Z,991.46
2018-11-06T12:21:14.292Z,991.46
2018-11-06T12:22:14.291Z,991.43
2018-11-06T12:23:14.318Z,991.42
2018-11-06T12:24:14.470Z,991.40
2018-11-06T12:25:14.501Z,991.41
2018-11-06T12:26:14.208Z,991.38
2018-11-06T12:27:14.207Z,991.43
2018-11-06T12:28:14.191Z,991.39
2018-11-06T12:29:14.179Z,991.39